Time;durP1;ratioP1;P1;durP2;ratioP2;P2;SDS_P1;SDS_P2;PMS_P1;PMS_P2;Temp;Humidity;BMP_temperature;BMP_pressure;BME280_temperature;BME280_humidity;BME280_pressure;Samples;Min_cycle;Max_cycle;Signal;HPM_P1;HPM_P2
2023/04/04 00:02:12;;;;;;;6.38;3.28;;;;;;;;;;5011380;28;20071;-74
2023/04/04 00:04:38;;;;;;;7.90;3.53;;;;;;;;;;5009916;28;20046;-74
2023/04/04 00:07:04;;;;;;;8.18;3.20;;;;;;;;;;5009805;28;20495;-74
2023/04/04 00:09:30;;;;;;;7.65;4.00;;;;;;;;;;5028701;28;20045;-74
2023/04/04 00:11:56;;;;;;;7.63;2.97;;;;;;;;;;5004292;28;20042;-74
2023/04/04 00:14:22;;;;;;;7.57;3.00;;;;;;;;;;4995756;28;20099;-74
2023/04/04 00:16:48;;;;;;;7.70;3.55;;;;;;;;;;5014270;28;20061;-74
2023/04/04 00:19:17;;;;;;;11.30;3.28;;;;;;;;;;5014393;28;20041;-74
2023/04/04 00:21:44;;;;;;;5.55;2.88;;;;;;;;;;5006759;28;20053;-74
2023/04/04 00:24:11;;;;;;;6.38;2.67;;;;;;;;;;5002110;28;20147;-74
2023/04/04 00:26:37;;;;;;;9.82;3.22;;;;;;;;;;5007912;28;20067;-74
2023/04/04 00:29:03;;;;;;;7.13;2.83;;;;;;;;;;5007501;28;20048;-74
2023/04/04 00:31:29;;;;;;;8.13;2.70;;;;;;;;;;5007753;28;20082;-74
2023/04/04 00:33:55;;;;;;;9.85;2.50;;;;;;;;;;5007117;28;20041;-74
2023/04/04 00:36:22;;;;;;;9.30;2.80;;;;;;;;;;5008808;28;21679;-74
2023/04/04 00:38:48;;;;;;;6.90;2.40;;;;;;;;;;5010809;28;20984;-74
2023/04/04 00:41:15;;;;;;;12.00;2.83;;;;;;;;;;5009781;28;20041;-74
2023/04/04 00:43:41;;;;;;;8.85;2.30;;;;;;;;;;5006831;28;20051;-74
2023/04/04 00:46:07;;;;;;;13.68;2.42;;;;;;;;;;5008815;28;20924;-74
2023/04/04 00:48:34;;;;;;;5.90;2.28;;;;;;;;;;5008777;28;20037;-74
2023/04/04 00:51:00;;;;;;;4.22;1.58;;;;;;;;;;5010351;28;20061;-74
2023/04/04 00:53:26;;;;;;;6.20;1.70;;;;;;;;;;5010203;28;20049;-74
2023/04/04 00:55:52;;;;;;;13.02;2.30;;;;;;;;;;5005897;28;20056;-74
2023/04/04 00:58:18;;;;;;;9.77;2.10;;;;;;;;;;5006640;28;20049;-75
2023/04/04 01:00:45;;;;;;;6.63;1.85;;;;;;;;;;5007505;28;21945;-74
2023/04/04 01:03:11;;;;;;;4.93;1.90;;;;;;;;;;5009112;28;20048;-74
2023/04/04 01:05:38;;;;;;;6.50;2.00;;;;;;;;;;5008097;28;20504;-74
2023/04/04 01:08:05;;;;;;;8.00;2.28;;;;;;;;;;5009370;28;20127;-75
2023/04/04 01:10:33;;;;;;;14.43;2.33;;;;;;;;;;5007784;28;20485;-75
2023/04/04 01:12:59;;;;;;;8.38;1.60;;;;;;;;;;4994374;28;20049;-75
2023/04/04 01:15:25;;;;;;;9.45;1.73;;;;;;;;;;5012663;28;20057;-74
2023/04/04 01:17:55;;;;;;;5.30;2.28;;;;;;;;;;5011415;28;20797;-75
2023/04/04 01:20:24;;;;;;;6.38;1.90;;;;;;;;;;5010559;28;20053;-74
2023/04/04 01:22:51;;;;;;;7.82;1.70;;;;;;;;;;5008902;28;20064;-74
2023/04/04 01:25:18;;;;;;;13.52;2.30;;;;;;;;;;5008628;28;21561;-74
2023/04/04 01:27:45;;;;;;;4.68;2.63;;;;;;;;;;5010011;28;20067;-75
2023/04/04 01:30:12;;;;;;;9.20;2.10;;;;;;;;;;5008088;28;20406;-74
2023/04/04 01:32:44;;;;;;;4.82;1.98;;;;;;;;;;5012591;28;20073;-74
2023/04/04 01:35:21;;;;;;;6.15;2.10;;;;;;;;;;5009871;28;20162;-74
2023/04/04 01:38:02;;;;;;;5.32;2.30;;;;;;;;;;5007418;28;20582;-74
2023/04/04 01:40:33;;;;;;;4.32;2.00;;;;;;;;;;5012477;28;20041;-74
2023/04/04 01:43:00;;;;;;;5.05;2.72;;;;;;;;;;5013143;28;20080;-74
2023/04/04 01:45:28;;;;;;;4.43;2.15;;;;;;;;;;5009158;28;20620;-75
2023/04/04 01:47:55;;;;;;;5.97;2.58;;;;;;;;;;4991279;28;20053;-74
2023/04/04 01:50:22;;;;;;;7.95;2.53;;;;;;;;;;5005980;28;20599;-74
2023/04/04 01:52:48;;;;;;;5.63;2.65;;;;;;;;;;5011336;28;20045;-74
2023/04/04 01:55:15;;;;;;;5.78;2.85;;;;;;;;;;5013241;28;20046;-74
2023/04/04 01:57:41;;;;;;;6.07;3.15;;;;;;;;;;5012271;28;20052;-74
2023/04/04 02:00:07;;;;;;;8.23;3.85;;;;;;;;;;5010257;28;20045;-74
2023/04/04 02:02:33;;;;;;;8.05;3.00;;;;;;;;;;5011161;28;20149;-74
2023/04/04 02:05:00;;;;;;;6.18;3.08;;;;;;;;;;5011015;28;20088;-74
2023/04/04 02:07:27;;;;;;;8.57;3.40;;;;;;;;;;5010944;28;20152;-75
2023/04/04 02:09:53;;;;;;;6.82;3.45;;;;;;;;;;5009844;28;20091;-74
2023/04/04 02:12:19;;;;;;;8.18;3.38;;;;;;;;;;5007978;28;21120;-74
2023/04/04 02:14:45;;;;;;;8.68;3.30;;;;;;;;;;4990487;28;20061;-74
2023/04/04 02:17:11;;;;;;;8.25;3.60;;;;;;;;;;5008346;28;20049;-74
2023/04/04 02:19:38;;;;;;;6.72;3.00;;;;;;;;;;5010053;28;20045;-74
2023/04/04 02:22:04;;;;;;;7.40;3.00;;;;;;;;;;5006320;28;22075;-75
2023/04/04 02:24:30;;;;;;;7.15;3.03;;;;;;;;;;5004195;28;20056;-74
2023/04/04 02:26:57;;;;;;;4.10;2.85;;;;;;;;;;5006687;28;20144;-75
2023/04/04 02:29:23;;;;;;;5.97;2.45;;;;;;;;;;4996455;28;20042;-74
2023/04/04 02:31:49;;;;;;;6.82;2.47;;;;;;;;;;5004077;28;20044;-74
2023/04/04 02:34:15;;;;;;;7.57;2.90;;;;;;;;;;5009660;28;20398;-75
2023/04/04 02:36:41;;;;;;;5.65;2.70;;;;;;;;;;5011999;28;20074;-74
2023/04/04 02:39:07;;;;;;;5.18;2.83;;;;;;;;;;5011684;28;20585;-74
2023/04/04 02:41:33;;;;;;;4.45;2.38;;;;;;;;;;5010816;28;21625;-74
2023/04/04 02:44:00;;;;;;;7.07;3.42;;;;;;;;;;4992639;28;20067;-73
2023/04/04 02:46:26;;;;;;;4.82;3.15;;;;;;;;;;5011329;28;20584;-73
2023/04/04 02:48:52;;;;;;;5.03;2.42;;;;;;;;;;5011686;28;20052;-73
2023/04/04 02:51:18;;;;;;;7.90;3.03;;;;;;;;;;5009285;28;20060;-73
2023/04/04 02:53:44;;;;;;;5.70;2.92;;;;;;;;;;5012838;28;20987;-73
2023/04/04 02:56:11;;;;;;;4.85;2.55;;;;;;;;;;5012128;28;20040;-74
2023/04/04 02:58:37;;;;;;;7.28;2.42;;;;;;;;;;5009328;28;20513;-74
2023/04/04 03:01:03;;;;;;;4.57;2.53;;;;;;;;;;5013566;28;20843;-74
2023/04/04 03:03:30;;;;;;;4.35;2.40;;;;;;;;;;5009517;28;20323;-73
2023/04/04 03:05:56;;;;;;;6.30;2.60;;;;;;;;;;5010324;28;20056;-74
2023/04/04 03:08:22;;;;;;;4.00;2.38;;;;;;;;;;5007270;28;20057;-74
2023/04/04 03:10:48;;;;;;;8.23;2.78;;;;;;;;;;5008242;28;20051;-74
2023/04/04 03:13:14;;;;;;;5.35;2.47;;;;;;;;;;4996647;28;20045;-74
2023/04/04 03:15:40;;;;;;;6.75;3.63;;;;;;;;;;5008087;28;20068;-74
2023/04/04 03:18:06;;;;;;;6.20;2.83;;;;;;;;;;5008609;28;20056;-74
2023/04/04 03:20:32;;;;;;;8.00;3.10;;;;;;;;;;5008046;28;20072;-74
2023/04/04 03:22:58;;;;;;;7.78;3.38;;;;;;;;;;5009111;28;20052;-74
2023/04/04 03:25:25;;;;;;;7.05;3.20;;;;;;;;;;5005775;28;20057;-74
2023/04/04 03:27:51;;;;;;;8.30;3.13;;;;;;;;;;5006393;28;20540;-74
2023/04/04 03:30:17;;;;;;;11.32;4.13;;;;;;;;;;4987671;28;20090;-73
2023/04/04 03:32:43;;;;;;;6.03;2.70;;;;;;;;;;5003905;28;20076;-73
2023/04/04 03:35:09;;;;;;;5.68;3.03;;;;;;;;;;4990214;28;21674;-74
2023/04/04 03:37:36;;;;;;;9.15;3.15;;;;;;;;;;5005100;28;20146;-74
2023/04/04 03:40:02;;;;;;;5.57;3.50;;;;;;;;;;5005196;28;20041;-74
2023/04/04 03:42:28;;;;;;;9.07;3.65;;;;;;;;;;5006364;28;21112;-74
2023/04/04 03:44:54;;;;;;;10.35;3.22;;;;;;;;;;4987856;28;20087;-74
2023/04/04 03:47:20;;;;;;;7.57;2.88;;;;;;;;;;5004047;28;20052;-74
2023/04/04 03:49:46;;;;;;;6.50;3.42;;;;;;;;;;5006575;28;20044;-74
2023/04/04 03:52:12;;;;;;;10.40;3.10;;;;;;;;;;5009017;28;20040;-73
2023/04/04 03:54:40;;;;;;;5.55;3.03;;;;;;;;;;5007348;28;20045;-74
2023/04/04 03:57:07;;;;;;;9.15;2.97;;;;;;;;;;5006194;28;20053;-74
2023/04/04 03:59:33;;;;;;;12.68;3.70;;;;;;;;;;5007808;28;20092;-74
2023/04/04 04:01:59;;;;;;;7.13;3.10;;;;;;;;;;4987807;28;20485;-74
2023/04/04 04:04:25;;;;;;;5.05;3.22;;;;;;;;;;5009648;28;20500;-73
2023/04/04 04:06:51;;;;;;;6.18;3.25;;;;;;;;;;4993638;28;20103;-73
2023/04/04 04:09:17;;;;;;;5.10;3.20;;;;;;;;;;5002233;28;20056;-73
2023/04/04 04:11:44;;;;;;;12.07;3.50;;;;;;;;;;5007995;28;20127;-73
2023/04/04 04:14:10;;;;;;;8.52;2.72;;;;;;;;;;5009461;28;20048;-72
2023/04/04 04:16:40;;;;;;;6.90;2.95;;;;;;;;;;5010505;28;20071;-72
2023/04/04 04:19:06;;;;;;;7.78;3.35;;;;;;;;;;5009877;28;20045;-73
2023/04/04 04:21:32;;;;;;;6.78;3.58;;;;;;;;;;5007838;28;20049;-73
2023/04/04 04:23:58;;;;;;;7.65;3.63;;;;;;;;;;4991899;28;20041;-73
2023/04/04 04:26:25;;;;;;;6.13;3.00;;;;;;;;;;4996566;28;20045;-73
2023/04/04 04:28:51;;;;;;;5.15;2.63;;;;;;;;;;5010235;28;20049;-73
2023/04/04 04:31:17;;;;;;;7.10;3.08;;;;;;;;;;4996548;28;20055;-73
2023/04/04 04:33:43;;;;;;;7.28;3.15;;;;;;;;;;5013949;28;20059;-73
2023/04/04 04:36:09;;;;;;;4.82;2.83;;;;;;;;;;5011851;28;20132;-73
2023/04/04 04:38:35;;;;;;;6.50;2.70;;;;;;;;;;5010474;28;20052;-73
2023/04/04 04:41:01;;;;;;;7.45;3.03;;;;;;;;;;5008968;28;20049;-73
2023/04/04 04:43:28;;;;;;;6.95;2.88;;;;;;;;;;5007984;28;20091;-73
2023/04/04 04:45:54;;;;;;;12.65;4.25;;;;;;;;;;5008449;28;20048;-73
2023/04/04 04:48:20;;;;;;;7.57;3.15;;;;;;;;;;5008715;28;21038;-73
2023/04/04 04:50:46;;;;;;;9.85;2.88;;;;;;;;;;4989997;28;20055;-73
2023/04/04 04:53:13;;;;;;;5.32;2.88;;;;;;;;;;5008944;28;20092;-74
2023/04/04 04:55:39;;;;;;;6.55;3.15;;;;;;;;;;5008417;28;20063;-73
2023/04/04 04:58:05;;;;;;;5.10;2.85;;;;;;;;;;5008823;28;20048;-73
2023/04/04 05:00:31;;;;;;;6.65;3.75;;;;;;;;;;5004339;28;20041;-74
2023/04/04 05:03:01;;;;;;;7.78;3.72;;;;;;;;;;5008088;28;20870;-73
2023/04/04 05:05:27;;;;;;;8.40;3.95;;;;;;;;;;5010450;28;20056;-73
2023/04/04 05:07:53;;;;;;;11.07;3.55;;;;;;;;;;5010972;28;20152;-74
2023/04/04 05:10:19;;;;;;;8.68;3.53;;;;;;;;;;5012550;28;20060;-73
2023/04/04 05:12:45;;;;;;;7.22;3.67;;;;;;;;;;5009429;28;20091;-73
2023/04/04 05:15:12;;;;;;;5.93;3.50;;;;;;;;;;5009540;28;20136;-73
2023/04/04 05:17:39;;;;;;;5.40;3.30;;;;;;;;;;5007124;28;20068;-73
2023/04/04 05:20:06;;;;;;;9.55;3.17;;;;;;;;;;4993668;28;20041;-73
2023/04/04 05:22:32;;;;;;;6.55;3.08;;;;;;;;;;5008446;28;20051;-73
2023/04/04 05:24:59;;;;;;;7.18;3.28;;;;;;;;;;5007518;28;20052;-73
2023/04/04 05:27:25;;;;;;;10.07;3.30;;;;;;;;;;5013750;28;20052;-73
2023/04/04 05:29:51;;;;;;;8.35;3.45;;;;;;;;;;5012085;28;20594;-73
2023/04/04 05:32:17;;;;;;;6.63;3.58;;;;;;;;;;5015587;28;20164;-73
2023/04/04 05:34:43;;;;;;;7.40;3.08;;;;;;;;;;5010711;28;20223;-75
2023/04/04 05:37:10;;;;;;;9.20;3.40;;;;;;;;;;5000538;28;20052;-73
2023/04/04 05:39:36;;;;;;;13.15;3.65;;;;;;;;;;5017815;28;20041;-73
2023/04/04 05:42:03;;;;;;;8.57;3.38;;;;;;;;;;5014849;28;20124;-73
2023/04/04 05:44:29;;;;;;;6.82;3.00;;;;;;;;;;5010352;28;20421;-73
2023/04/04 05:46:55;;;;;;;7.50;3.83;;;;;;;;;;5014633;28;21861;-73
2023/04/04 05:49:21;;;;;;;6.57;3.22;;;;;;;;;;5014124;28;20205;-73
2023/04/04 05:51:47;;;;;;;5.32;3.08;;;;;;;;;;5013435;28;20064;-73
2023/04/04 05:54:14;;;;;;;6.65;3.03;;;;;;;;;;5011171;28;20485;-73
2023/04/04 05:56:40;;;;;;;9.70;3.28;;;;;;;;;;5011617;28;20080;-74
2023/04/04 05:59:06;;;;;;;5.63;3.22;;;;;;;;;;5012267;28;20576;-74
2023/04/04 06:01:33;;;;;;;4.43;2.80;;;;;;;;;;5009794;28;20802;-74
2023/04/04 06:03:59;;;;;;;8.00;3.10;;;;;;;;;;5012978;28;20049;-74
2023/04/04 06:06:26;;;;;;;6.07;3.15;;;;;;;;;;5014919;28;20052;-74
2023/04/04 06:08:52;;;;;;;7.22;3.00;;;;;;;;;;5015150;28;20417;-74
2023/04/04 06:11:18;;;;;;;137.63;71.15;;;;;;;;;;5012178;28;20095;-74
2023/04/04 06:13:44;;;;;;;13.00;7.97;;;;;;;;;;5016602;28;20128;-73
2023/04/04 06:16:11;;;;;;;15.73;7.93;;;;;;;;;;4997738;28;20087;-73
2023/04/04 06:18:37;;;;;;;5.85;3.83;;;;;;;;;;5017088;28;20148;-75
2023/04/04 06:21:03;;;;;;;12.45;4.32;;;;;;;;;;5013660;28;20087;-75
2023/04/04 06:23:29;;;;;;;8.57;4.93;;;;;;;;;;5015735;28;20072;-75
2023/04/04 06:25:55;;;;;;;10.32;4.40;;;;;;;;;;5015367;28;20389;-75
2023/04/04 06:28:22;;;;;;;16.02;5.43;;;;;;;;;;5014291;28;20044;-75
2023/04/04 06:30:49;;;;;;;12.70;5.03;;;;;;;;;;5017538;28;20049;-75
2023/04/04 06:33:16;;;;;;;10.35;4.90;;;;;;;;;;5001062;28;20037;-75
2023/04/04 06:35:42;;;;;;;11.57;4.32;;;;;;;;;;5020130;28;20049;-75
2023/04/04 06:38:08;;;;;;;10.35;4.32;;;;;;;;;;5020252;28;20111;-76
2023/04/04 06:40:35;;;;;;;7.93;4.22;;;;;;;;;;5018825;28;20079;-75
2023/04/04 06:43:01;;;;;;;11.32;4.50;;;;;;;;;;5016953;28;20103;-75
2023/04/04 06:45:28;;;;;;;14.23;3.63;;;;;;;;;;5025091;28;20078;-74
2023/04/04 06:47:55;;;;;;;8.90;4.13;;;;;;;;;;5002501;28;20054;-75
2023/04/04 06:50:21;;;;;;;6.38;3.15;;;;;;;;;;5021939;28;20055;-75
2023/04/04 06:52:48;;;;;;;9.65;3.42;;;;;;;;;;5021756;28;20044;-75
2023/04/04 06:55:14;;;;;;;10.82;3.42;;;;;;;;;;5001645;28;20041;-75
2023/04/04 06:57:41;;;;;;;9.27;3.58;;;;;;;;;;5015822;28;20045;-75
2023/04/04 07:00:08;;;;;;;13.40;3.63;;;;;;;;;;5013500;28;21498;-75
2023/04/04 07:02:34;;;;;;;9.60;2.90;;;;;;;;;;5015266;28;20045;-73
2023/04/04 07:05:00;;;;;;;6.63;2.72;;;;;;;;;;5003309;28;20506;-74
2023/04/04 07:07:26;;;;;;;7.95;2.83;;;;;;;;;;5015097;28;20073;-75
2023/04/04 07:09:52;;;;;;;6.68;2.60;;;;;;;;;;5017653;28;20455;-75
2023/04/04 07:12:18;;;;;;;10.63;2.92;;;;;;;;;;5013511;28;20044;-75
2023/04/04 07:14:44;;;;;;;8.45;2.97;;;;;;;;;;5012708;28;20064;-75
2023/04/04 07:17:10;;;;;;;8.82;2.88;;;;;;;;;;4999956;28;20068;-75
2023/04/04 07:19:37;;;;;;;8.43;3.00;;;;;;;;;;5012229;28;20052;-75
2023/04/04 07:22:03;;;;;;;12.32;3.55;;;;;;;;;;5015677;28;20060;-75
2023/04/04 07:24:29;;;;;;;9.70;3.28;;;;;;;;;;5010042;28;20052;-73
2023/04/04 07:26:55;;;;;;;10.45;3.10;;;;;;;;;;4980951;28;20048;-75
2023/04/04 07:29:22;;;;;;;10.20;2.95;;;;;;;;;;5014574;28;20405;-75
2023/04/04 07:31:48;;;;;;;4.25;2.35;;;;;;;;;;5011608;28;20059;-75
2023/04/04 07:34:15;;;;;;;9.05;3.08;;;;;;;;;;4995048;28;20132;-76
2023/04/04 07:36:41;;;;;;;8.02;2.88;;;;;;;;;;5012471;28;20107;-74
2023/04/04 07:39:07;;;;;;;7.22;2.85;;;;;;;;;;5000296;28;20159;-74
2023/04/04 07:41:34;;;;;;;8.68;2.97;;;;;;;;;;5013867;28;20193;-74
2023/04/04 07:44:00;;;;;;;9.95;2.75;;;;;;;;;;5011439;28;20064;-75
2023/04/04 07:46:27;;;;;;;9.45;2.75;;;;;;;;;;5013664;28;21566;-75
2023/04/04 07:48:53;;;;;;;8.82;3.15;;;;;;;;;;5008937;28;20057;-75
2023/04/04 07:51:28;;;;;;;5.00;2.28;;;;;;;;;;4995190;28;20504;-75
2023/04/04 07:53:55;;;;;;;9.02;2.65;;;;;;;;;;5023374;28;20045;-76
2023/04/04 07:56:21;;;;;;;6.28;2.40;;;;;;;;;;5026068;28;20049;-75
2023/04/04 07:58:47;;;;;;;4.35;2.60;;;;;;;;;;5002000;28;20068;-76
2023/04/04 08:01:13;;;;;;;7.03;2.80;;;;;;;;;;5019792;28;20069;-78
2023/04/04 08:03:40;;;;;;;6.70;2.03;;;;;;;;;;5018377;28;21715;-78
2023/04/04 08:06:06;;;;;;;7.82;2.15;;;;;;;;;;5014718;28;20102;-78
2023/04/04 08:08:32;;;;;;;5.50;2.50;;;;;;;;;;5011941;28;20265;-78
2023/04/04 08:10:58;;;;;;;3.83;2.08;;;;;;;;;;5008148;28;20124;-78
2023/04/04 08:13:24;;;;;;;6.30;2.50;;;;;;;;;;5008178;28;20793;-78
2023/04/04 08:15:50;;;;;;;6.30;2.78;;;;;;;;;;5015004;28;20033;-79
2023/04/04 08:18:17;;;;;;;4.70;2.53;;;;;;;;;;5002027;28;20057;-79
2023/04/04 08:20:43;;;;;;;5.38;2.50;;;;;;;;;;5020395;28;20418;-78
2023/04/04 08:23:09;;;;;;;5.55;2.67;;;;;;;;;;5015909;28;20049;-79
2023/04/04 08:25:35;;;;;;;7.80;2.05;;;;;;;;;;5016294;28;20660;-79
2023/04/04 08:28:04;;;;;;;3.80;2.03;;;;;;;;;;5013615;28;20477;-78
2023/04/04 08:30:30;;;;;;;4.90;2.20;;;;;;;;;;5010828;28;20044;-79
2023/04/04 08:32:56;;;;;;;7.63;2.00;;;;;;;;;;4989584;28;20709;-79
2023/04/04 08:35:22;;;;;;;4.80;2.03;;;;;;;;;;5012643;28;20410;-79
2023/04/04 08:37:49;;;;;;;4.70;2.30;;;;;;;;;;4998452;28;20083;-80
2023/04/04 08:40:15;;;;;;;6.15;1.95;;;;;;;;;;4998653;28;20116;-81
2023/04/04 08:42:45;;;;;;;5.75;2.90;;;;;;;;;;5012651;28;20046;-80
2023/04/04 08:45:11;;;;;;;8.02;2.58;;;;;;;;;;4992825;28;21550;-79
2023/04/04 08:47:39;;;;;;;3.95;2.17;;;;;;;;;;5010477;28;20160;-79
2023/04/04 08:50:06;;;;;;;6.38;2.20;;;;;;;;;;5010590;28;20401;-80
2023/04/04 08:52:33;;;;;;;6.55;2.33;;;;;;;;;;5010626;28;20288;-79
2023/04/04 08:55:00;;;;;;;9.32;2.28;;;;;;;;;;5009165;28;20076;-79
2023/04/04 08:57:26;;;;;;;3.85;2.30;;;;;;;;;;5011235;28;20091;-77
2023/04/04 08:59:52;;;;;;;4.10;1.70;;;;;;;;;;5011384;28;20037;-77
2023/04/04 09:02:25;;;;;;;6.50;2.20;;;;;;;;;;5016622;28;20151;-76
2023/04/04 09:04:52;;;;;;;6.15;2.38;;;;;;;;;;5027452;28;20042;-75
2023/04/04 09:07:18;;;;;;;6.40;2.40;;;;;;;;;;5026433;28;20114;-76
2023/04/04 09:09:45;;;;;;;5.93;2.33;;;;;;;;;;5020288;28;20073;-75
2023/04/04 09:12:13;;;;;;;7.82;2.30;;;;;;;;;;5022143;28;20392;-74
2023/04/04 09:14:40;;;;;;;9.10;2.17;;;;;;;;;;5017735;28;20095;-76
2023/04/04 09:17:13;;;;;;;5.70;2.20;;;;;;;;;;5003195;28;20049;-76
2023/04/04 09:19:39;;;;;;;5.25;2.13;;;;;;;;;;5007112;28;20049;-76
2023/04/04 09:22:09;;;;;;;6.28;2.67;;;;;;;;;;5017636;28;20041;-76
2023/04/04 09:24:39;;;;;;;3.78;2.20;;;;;;;;;;5002440;28;20048;-76
2023/04/04 09:27:06;;;;;;;6.38;2.47;;;;;;;;;;5025931;28;20458;-76
2023/04/04 09:29:33;;;;;;;4.90;2.65;;;;;;;;;;5026267;28;20041;-75
2023/04/04 09:31:59;;;;;;;5.38;2.35;;;;;;;;;;5022394;28;20044;-75
2023/04/04 09:34:29;;;;;;;6.22;2.15;;;;;;;;;;5026009;28;21936;-76
2023/04/04 09:36:55;;;;;;;9.38;2.30;;;;;;;;;;5024184;28;20686;-75
2023/04/04 09:39:22;;;;;;;5.57;2.30;;;;;;;;;;5024069;28;20037;-75
2023/04/04 09:41:49;;;;;;;3.15;2.00;;;;;;;;;;5024054;28;20041;-75
2023/04/04 09:44:16;;;;;;;2.65;1.90;;;;;;;;;;5021792;28;20056;-75
2023/04/04 09:46:42;;;;;;;3.65;2.00;;;;;;;;;;5019088;28;20040;-75
2023/04/04 09:49:20;;;;;;;2.78;1.90;;;;;;;;;;5024416;28;20052;-75
2023/04/04 09:51:53;;;;;;;7.30;2.03;;;;;;;;;;5022395;28;20053;-75
2023/04/04 09:54:23;;;;;;;3.65;1.92;;;;;;;;;;5021071;28;20394;-75
2023/04/04 09:56:50;;;;;;;3.83;2.15;;;;;;;;;;5009485;28;20049;-76
2023/04/04 09:59:20;;;;;;;3.47;2.00;;;;;;;;;;5011464;28;20049;-75
2023/04/04 10:01:46;;;;;;;7.13;2.47;;;;;;;;;;5020247;28;20781;-79
2023/04/04 10:04:13;;;;;;;4.22;2.20;;;;;;;;;;5020254;28;20458;-79
2023/04/04 10:06:39;;;;;;;4.93;2.50;;;;;;;;;;5027191;28;20046;-85
2023/04/04 10:09:07;;;;;;;3.17;2.10;;;;;;;;;;5028665;28;20171;-85
2023/04/04 10:11:35;;;;;;;6.47;2.20;;;;;;;;;;5013249;28;22092;-85
2023/04/04 10:14:05;;;;;;;3.83;2.35;;;;;;;;;;5028400;28;20052;-85
2023/04/04 10:16:33;;;;;;;10.20;2.55;;;;;;;;;;5029575;28;20631;-84
2023/04/04 10:19:04;;;;;;;6.00;2.28;;;;;;;;;;5043409;28;20144;-85
2023/04/04 10:21:33;;;;;;;;;;;;;;;;;;5042896;28;20045;-85
2023/04/04 10:24:00;;;;;;;5.45;2.47;;;;;;;;;;5031307;28;19921;-87
2023/04/04 10:26:27;;;;;;;6.55;2.20;;;;;;;;;;5027421;28;20095;-87
2023/04/04 10:28:53;;;;;;;3.38;2.20;;;;;;;;;;5029758;28;20119;-87
2023/04/04 10:31:26;;;;;;;11.20;2.45;;;;;;;;;;5029679;28;20687;-87
2023/04/04 10:34:11;;;;;;;5.25;2.40;;;;;;;;;;5012450;28;20111;-87
2023/04/04 10:36:50;;;;;;;4.63;2.35;;;;;;;;;;5024710;28;20051;-86
2023/04/04 10:39:35;;;;;;;3.60;2.17;;;;;;;;;;5032308;28;20057;-85
2023/04/04 10:42:04;;;;;;;4.13;2.35;;;;;;;;;;5043723;28;20057;-84
2023/04/04 10:44:34;;;;;;;6.20;2.33;;;;;;;;;;5036262;28;20095;-84
2023/04/04 10:47:05;;;;;;;4.97;2.33;;;;;;;;;;5027742;28;20045;-86
2023/04/04 10:49:31;;;;;;;4.65;2.15;;;;;;;;;;5027788;28;20036;-86
2023/04/04 10:51:57;;;;;;;4.68;2.22;;;;;;;;;;5027173;28;20060;-85
2023/04/04 10:54:26;;;;;;;5.32;3.00;;;;;;;;;;5027413;28;20041;-86
2023/04/04 10:56:53;;;;;;;8.70;2.70;;;;;;;;;;5026513;28;20076;-84
2023/04/04 10:59:19;;;;;;;4.78;2.80;;;;;;;;;;5021623;28;20052;-84
2023/04/04 11:02:05;;;;;;;8.50;3.20;;;;;;;;;;5006540;28;20596;-85
2023/04/04 11:04:32;;;;;;;4.88;2.45;;;;;;;;;;5015880;28;20049;-74
2023/04/04 11:07:17;;;;;;;9.02;2.75;;;;;;;;;;5019085;28;20041;-74
2023/04/04 11:09:56;;;;;;;8.07;2.78;;;;;;;;;;5012206;28;20386;-75
2023/04/04 11:12:26;;;;;;;7.10;2.75;;;;;;;;;;5012482;28;20366;-74
2023/04/04 11:15:02;;;;;;;6.50;2.85;;;;;;;;;;4995079;28;20665;-74
2023/04/04 11:17:41;;;;;;;5.22;2.90;;;;;;;;;;5012724;28;20070;-73
2023/04/04 11:20:08;;;;;;;4.85;2.70;;;;;;;;;;5009109;28;20696;-74
2023/04/04 11:22:37;;;;;;;4.63;2.80;;;;;;;;;;5019631;28;20051;-84
2023/04/04 11:25:22;;;;;;;4.43;3.08;;;;;;;;;;5023256;28;20057;-85
2023/04/04 11:27:50;;;;;;;10.13;2.95;;;;;;;;;;5015216;28;20081;-74
2023/04/04 11:30:16;;;;;;;6.57;3.13;;;;;;;;;;5013913;28;20085;-82
2023/04/04 11:32:46;;;;;;;7.47;3.20;;;;;;;;;;5006136;28;20511;-82
2023/04/04 11:35:12;;;;;;;5.32;2.75;;;;;;;;;;5025683;28;20397;-85
2023/04/04 11:37:52;;;;;;;4.35;2.88;;;;;;;;;;5005652;28;20070;-84
2023/04/04 11:40:18;;;;;;;5.47;3.25;;;;;;;;;;5024895;28;20048;-84
2023/04/04 11:42:44;;;;;;;6.20;3.20;;;;;;;;;;5000768;28;20126;-79
2023/04/04 11:45:17;;;;;;;5.95;3.17;;;;;;;;;;5019944;28;20060;-80
2023/04/04 11:47:47;;;;;;;4.57;3.28;;;;;;;;;;5021050;28;20572;-79
2023/04/04 11:50:14;;;;;;;4.38;3.05;;;;;;;;;;5004750;28;20037;-80
2023/04/04 11:52:41;;;;;;;7.75;3.53;;;;;;;;;;5006865;28;20041;-79
2023/04/04 11:55:18;;;;;;;4.32;3.05;;;;;;;;;;5018665;28;20158;-79
2023/04/04 11:57:46;;;;;;;7.18;3.45;;;;;;;;;;5003188;28;20040;-79
2023/04/04 12:00:27;;;;;;;10.20;3.63;;;;;;;;;;5019452;28;20508;-79
2023/04/04 12:02:54;;;;;;;6.82;3.33;;;;;;;;;;5016220;28;20044;-79
2023/04/04 12:05:21;;;;;;;7.65;3.28;;;;;;;;;;5023182;28;20041;-79
2023/04/04 12:07:47;;;;;;;5.65;3.50;;;;;;;;;;5005429;28;20052;-75
2023/04/04 12:10:14;;;;;;;11.77;3.58;;;;;;;;;;5016460;28;21814;-75
2023/04/04 12:12:41;;;;;;;5.78;2.95;;;;;;;;;;5018050;28;20098;-75
2023/04/04 12:15:08;;;;;;;9.20;3.97;;;;;;;;;;5021860;28;20040;-75
2023/04/04 12:17:38;;;;;;;4.93;3.08;;;;;;;;;;5019131;28;20148;-75
2023/04/04 12:20:06;;;;;;;9.80;3.50;;;;;;;;;;5022647;28;20273;-74
2023/04/04 12:22:36;;;;;;;7.90;3.47;;;;;;;;;;5021725;28;20055;-75
2023/04/04 12:25:04;;;;;;;8.30;3.40;;;;;;;;;;5018709;28;20084;-74
2023/04/04 12:27:31;;;;;;;4.10;2.90;;;;;;;;;;5016266;28;20049;-75
2023/04/04 12:29:58;;;;;;;5.47;2.80;;;;;;;;;;4998200;28;20040;-74
2023/04/04 12:32:24;;;;;;;5.47;3.13;;;;;;;;;;5011679;28;20049;-74
2023/04/04 12:34:50;;;;;;;5.03;3.30;;;;;;;;;;5013014;28;20777;-75
2023/04/04 12:37:18;;;;;;;6.45;2.60;;;;;;;;;;4998356;28;20132;-74
2023/04/04 12:39:53;;;;;;;7.53;3.35;;;;;;;;;;5013330;28;20095;-75
2023/04/04 12:42:23;;;;;;;8.30;3.25;;;;;;;;;;5015281;28;20163;-73
2023/04/04 12:44:53;;;;;;;5.18;2.90;;;;;;;;;;5012421;28;20045;-74
2023/04/04 12:47:21;;;;;;;3.78;2.75;;;;;;;;;;4996912;28;20047;-74
2023/04/04 12:49:48;;;;;;;8.25;3.47;;;;;;;;;;5015142;28;20068;-74
2023/04/04 12:52:40;;;;;;;5.07;3.20;;;;;;;;;;4987995;28;21529;-74
2023/04/04 12:55:11;;;;;;;8.00;3.35;;;;;;;;;;5010318;28;20395;-73
2023/04/04 12:57:40;;;;;;;6.40;2.97;;;;;;;;;;5012850;28;20071;-73
2023/04/04 13:00:07;;;;;;;7.93;3.47;;;;;;;;;;4996439;28;20063;-74
2023/04/04 13:02:34;;;;;;;6.60;3.25;;;;;;;;;;5013141;28;20382;-74
2023/04/04 13:05:02;;;;;;;7.68;3.00;;;;;;;;;;4996720;28;21145;-74
2023/04/04 13:07:31;;;;;;;4.93;2.75;;;;;;;;;;5012382;28;20049;-74
2023/04/04 13:10:02;;;;;;;7.15;2.97;;;;;;;;;;5011774;28;20049;-74
2023/04/04 13:12:48;;;;;;;5.57;3.17;;;;;;;;;;5012806;28;20041;-73
2023/04/04 13:15:15;;;;;;;6.35;2.88;;;;;;;;;;5009935;28;20131;-73
2023/04/04 13:17:42;;;;;;;8.10;3.10;;;;;;;;;;5012832;28;23704;-73
2023/04/04 13:20:09;;;;;;;5.55;2.70;;;;;;;;;;4993801;28;20061;-74
2023/04/04 13:22:36;;;;;;;6.65;3.40;;;;;;;;;;5014814;28;20390;-73
2023/04/04 13:25:03;;;;;;;5.88;2.45;;;;;;;;;;5015950;28;23183;-73
2023/04/04 13:27:29;;;;;;;5.45;2.90;;;;;;;;;;4985470;28;20079;-73
2023/04/04 13:29:55;;;;;;;4.28;2.63;;;;;;;;;;5012109;28;21899;-75
2023/04/04 13:32:21;;;;;;;8.75;2.80;;;;;;;;;;4997410;28;20053;-73
2023/04/04 13:34:48;;;;;;;5.00;3.00;;;;;;;;;;5013674;28;20049;-73
2023/04/04 13:37:14;;;;;;;8.60;2.85;;;;;;;;;;5011575;28;20045;-74
2023/04/04 13:39:40;;;;;;;6.28;2.60;;;;;;;;;;5012907;28;20037;-74
2023/04/04 13:42:06;;;;;;;5.40;2.95;;;;;;;;;;5015212;28;20088;-74
2023/04/04 13:44:32;;;;;;;5.07;2.83;;;;;;;;;;5015113;28;20037;-74
2023/04/04 13:46:59;;;;;;;8.25;3.60;;;;;;;;;;5013427;28;20040;-74
2023/04/04 13:49:26;;;;;;;8.88;2.92;;;;;;;;;;5010084;28;20045;-74
2023/04/04 13:51:52;;;;;;;4.75;2.90;;;;;;;;;;5011783;28;20041;-73
2023/04/04 13:54:18;;;;;;;8.15;3.10;;;;;;;;;;5015311;28;20439;-72
2023/04/04 13:56:46;;;;;;;8.15;3.13;;;;;;;;;;5018968;28;20049;-75
2023/04/04 13:59:12;;;;;;;6.20;2.92;;;;;;;;;;5026113;28;20557;-80
2023/04/04 14:01:39;;;;;;;7.43;3.42;;;;;;;;;;5026854;28;20701;-74
2023/04/04 14:04:05;;;;;;;3.70;2.72;;;;;;;;;;5019893;28;20037;-75
2023/04/04 14:06:31;;;;;;;7.38;3.15;;;;;;;;;;5015142;28;20137;-74
2023/04/04 14:08:58;;;;;;;4.40;3.35;;;;;;;;;;5016064;28;20141;-74
2023/04/04 14:11:30;;;;;;;4.28;3.13;;;;;;;;;;4999483;28;20059;-74
2023/04/04 14:13:59;;;;;;;6.25;3.40;;;;;;;;;;5012237;28;20041;-75
2023/04/04 14:16:25;;;;;;;5.60;3.05;;;;;;;;;;5011099;28;20053;-75
2023/04/04 14:18:51;;;;;;;4.15;2.88;;;;;;;;;;5015473;28;20303;-75
2023/04/04 14:21:17;;;;;;;6.88;3.40;;;;;;;;;;5019156;28;20060;-75
2023/04/04 14:23:43;;;;;;;9.32;3.53;;;;;;;;;;5000297;28;20136;-75
2023/04/04 14:26:09;;;;;;;5.28;3.33;;;;;;;;;;5018708;28;20158;-75
2023/04/04 14:28:37;;;;;;;6.43;3.25;;;;;;;;;;5020135;28;20054;-75
2023/04/04 14:31:05;;;;;;;8.82;3.50;;;;;;;;;;5020022;28;20045;-75
2023/04/04 14:33:31;;;;;;;6.45;3.60;;;;;;;;;;5019817;28;20515;-75
2023/04/04 14:35:57;;;;;;;5.28;3.28;;;;;;;;;;4999601;28;20069;-75
2023/04/04 14:38:23;;;;;;;7.22;3.45;;;;;;;;;;5016276;28;20048;-75
2023/04/04 14:40:49;;;;;;;8.88;3.65;;;;;;;;;;5015729;28;20588;-75
2023/04/04 14:43:15;;;;;;;5.53;3.13;;;;;;;;;;5015670;28;20049;-75